createdAt,value
2022-08-03T00:02:17.462Z,36.20
2022-08-03T00:04:44.506Z,36.10
2022-08-03T00:07:11.272Z,36.70
2022-08-03T00:09:38.037Z,36.10
2022-08-03T00:12:05.447Z,36.10
2022-08-03T00:14:32.278Z,36.60
2022-08-03T00:17:00.418Z,36.70
2022-08-03T00:19:27.209Z,35.90
2022-08-03T00:21:54.054Z,35.90
2022-08-03T00:24:21.205Z,35.80
2022-08-03T00:26:47.993Z,35.90
2022-08-03T00:29:14.857Z,35.80
2022-08-03T00:31:52.588Z,35.60
2022-08-03T00:34:36.627Z,35.70
2022-08-03T00:37:14.377Z,35.60
2022-08-03T00:39:43.311Z,35.70
2022-08-03T00:42:10.071Z,35.80
2022-08-03T00:44:40.352Z,35.80
2022-08-03T00:47:07.525Z,35.50
2022-08-03T00:49:35.974Z,35.60
2022-08-03T00:52:09.483Z,35.60
2022-08-03T00:54:37.717Z,35.60
2022-08-03T00:57:04.866Z,35.80
2022-08-03T00:59:31.756Z,36.30
2022-08-03T01:01:58.903Z,35.90
2022-08-03T01:04:25.706Z,36.90
2022-08-03T01:07:03.630Z,37.60
2022-08-03T01:09:45.310Z,37.40
2022-08-03T01:12:21.081Z,37.20
2022-08-03T01:14:54.350Z,37.10
2022-08-03T01:17:36.312Z,37.10
2022-08-03T01:20:06.889Z,38.10
2022-08-03T01:23:03.222Z,37.70
2022-08-03T01:25:40.209Z,37.40
2022-08-03T01:28:23.054Z,37.50
2022-08-03T01:30:56.473Z,37.40
2022-08-03T01:33:28.173Z,37.40
2022-08-03T01:35:58.957Z,37.10
2022-08-03T01:38:29.328Z,38.10
2022-08-03T01:40:57.088Z,37.00
2022-08-03T01:44:03.041Z,37.40
2022-08-03T01:46:16.903Z,37.80
2022-08-03T01:48:46.240Z,37.60
2022-08-03T01:51:15.445Z,37.60
2022-08-03T01:53:42.375Z,37.90
2022-08-03T01:56:10.167Z,37.90
2022-08-03T01:58:38.505Z,37.50
2022-08-03T02:01:07.001Z,37.30
2022-08-03T02:03:38.404Z,37.50
2022-08-03T02:06:59.909Z,37.40
2022-08-03T02:09:14.991Z,37.20
2022-08-03T02:11:44.594Z,37.30
2022-08-03T02:14:11.710Z,37.20
2022-08-03T02:16:38.620Z,37.00
2022-08-03T02:19:08.479Z,36.80
2022-08-03T02:21:57.448Z,37.00
2022-08-03T02:24:23.913Z,36.70
2022-08-03T02:26:53.608Z,37.20
2022-08-03T02:29:39.628Z,36.90
2022-08-03T02:32:10.379Z,36.70
2022-08-03T02:34:41.013Z,36.90
2022-08-03T02:37:10.295Z,36.60
2022-08-03T02:39:39.677Z,36.60
2022-08-03T02:42:08.659Z,36.90
2022-08-03T02:44:37.579Z,36.60
2022-08-03T02:47:09.528Z,36.70
2022-08-03T02:49:51.076Z,36.90
2022-08-03T02:52:21.350Z,37.10
2022-08-03T02:54:50.676Z,36.80
2022-08-03T02:57:18.589Z,37.30
2022-08-03T02:59:47.058Z,37.50
2022-08-03T03:02:15.853Z,37.20
2022-08-03T03:05:52.728Z,37.10
2022-08-03T03:07:39.784Z,37.40
2022-08-03T03:10:20.654Z,37.30
2022-08-03T03:12:50.131Z,37.80
2022-08-03T03:15:17.084Z,37.50
2022-08-03T03:17:45.317Z,37.40
2022-08-03T03:20:15.678Z,37.70
2022-08-03T03:22:58.202Z,37.60
2022-08-03T03:25:26.458Z,37.20
2022-08-03T03:27:53.538Z,37.30
2022-08-03T03:30:20.365Z,37.70
2022-08-03T03:32:47.188Z,37.20
2022-08-03T03:35:15.856Z,37.10
2022-08-03T03:37:42.686Z,37.10
2022-08-03T03:40:11.007Z,37.10
2022-08-03T03:42:37.876Z,37.40
2022-08-03T03:45:05.683Z,37.40
2022-08-03T03:47:34.022Z,37.20
2022-08-03T03:50:02.250Z,37.70
2022-08-03T03:52:31.354Z,37.40
2022-08-03T03:55:01.032Z,37.50
2022-08-03T03:57:28.492Z,37.50
2022-08-03T03:59:55.447Z,37.60
2022-08-03T04:02:22.378Z,37.30
2022-08-03T04:04:49.138Z,37.40
2022-08-03T04:07:15.922Z,37.70
2022-08-03T04:09:45.609Z,37.90
2022-08-03T04:12:13.148Z,38.40
2022-08-03T04:14:41.282Z,37.90
2022-08-03T04:17:11.738Z,37.60
2022-08-03T04:19:42.195Z,38.10
2022-08-03T04:22:12.110Z,38.50
2022-08-03T04:24:41.412Z,38.60
2022-08-03T04:27:12.469Z,38.10
2022-08-03T04:29:46.450Z,38.30
2022-08-03T04:32:16.961Z,38.60
2022-08-03T04:34:44.197Z,38.50
2022-08-03T04:37:14.681Z,38.10
2022-08-03T04:39:42.832Z,38.20
2022-08-03T04:42:13.632Z,37.80
2022-08-03T04:44:42.480Z,38.20
2022-08-03T04:47:09.384Z,38.40
2022-08-03T04:49:37.485Z,38.80
2022-08-03T04:52:05.250Z,38.90
2022-08-03T04:54:39.608Z,38.30
2022-08-03T04:57:06.467Z,38.80
2022-08-03T04:59:34.655Z,39.20
2022-08-03T05:02:06.067Z,38.80
2022-08-03T05:04:32.885Z,39.10
2022-08-03T05:06:59.644Z,39.20
2022-08-03T05:09:50.263Z,39.30
2022-08-03T05:12:19.335Z,39.10
2022-08-03T05:14:47.494Z,39.20
2022-08-03T05:17:14.198Z,40.00
2022-08-03T05:19:40.993Z,39.30
2022-08-03T05:22:07.761Z,39.60
2022-08-03T05:24:34.521Z,39.80
2022-08-03T05:27:01.324Z,39.70
2022-08-03T05:29:28.248Z,39.50
2022-08-03T05:31:56.485Z,39.30
2022-08-03T05:34:23.278Z,39.40
2022-08-03T05:36:50.007Z,39.40
2022-08-03T05:39:16.747Z,39.30
2022-08-03T05:41:43.477Z,39.70
2022-08-03T05:44:10.241Z,39.60
2022-08-03T05:46:37.010Z,39.50
2022-08-03T05:49:05.186Z,39.80
2022-08-03T05:51:31.933Z,40.00
2022-08-03T05:53:58.710Z,39.60
2022-08-03T05:56:25.512Z,39.80
2022-08-03T05:58:53.017Z,39.90
2022-08-03T06:01:20.623Z,39.90
2022-08-03T06:03:47.837Z,40.20
2022-08-03T06:06:16.720Z,39.70
2022-08-03T06:08:44.625Z,39.80
2022-08-03T06:11:11.691Z,39.50
2022-08-03T06:13:39.049Z,39.00
2022-08-03T06:16:06.163Z,39.00
2022-08-03T06:18:32.929Z,39.00
2022-08-03T06:21:13.985Z,38.70
2022-08-03T06:23:54.830Z,37.90
2022-08-03T06:26:23.936Z,37.70
2022-08-03T06:28:52.297Z,37.90
2022-08-03T06:31:20.918Z,37.00
2022-08-03T06:34:31.268Z,37.30
2022-08-03T06:36:34.479Z,36.40
2022-08-03T06:39:02.935Z,36.30
2022-08-03T06:41:29.672Z,36.40
2022-08-03T06:44:04.672Z,36.10
2022-08-03T06:46:31.506Z,35.40
2022-08-03T06:48:58.337Z,35.30
2022-08-03T06:52:05.545Z,35.20
2022-08-03T06:54:13.279Z,34.80
2022-08-03T06:56:40.003Z,34.50
2022-08-03T06:59:06.774Z,35.10
2022-08-03T07:01:33.659Z,34.70
2022-08-03T07:04:00.457Z,34.20
2022-08-03T07:06:27.302Z,33.80
2022-08-03T07:08:59.014Z,33.50
2022-08-03T07:11:27.769Z,34.00
2022-08-03T07:13:54.571Z,32.90
2022-08-03T07:16:21.285Z,32.90
2022-08-03T07:18:48.072Z,32.80
2022-08-03T07:21:14.920Z,32.10
2022-08-03T07:23:41.761Z,31.90
2022-08-03T07:26:08.563Z,31.80
2022-08-03T07:28:36.728Z,31.20
2022-08-03T07:31:03.615Z,31.90
2022-08-03T07:33:30.409Z,31.80
2022-08-03T07:35:57.175Z,31.10
2022-08-03T07:38:23.948Z,31.00
2022-08-03T07:40:50.698Z,31.00
2022-08-03T07:43:17.432Z,30.80
2022-08-03T07:45:45.646Z,31.30
2022-08-03T07:48:12.824Z,30.10
2022-08-03T07:50:40.245Z,29.90
2022-08-03T07:53:07.017Z,29.70
2022-08-03T07:55:34.012Z,29.60
2022-08-03T07:58:05.721Z,29.60
2022-08-03T08:00:32.959Z,29.30
2022-08-03T08:03:01.532Z,29.30
2022-08-03T08:05:28.678Z,29.30
2022-08-03T08:07:55.655Z,28.70
2022-08-03T08:10:23.132Z,29.00
2022-08-03T08:12:50.568Z,29.40
2022-08-03T08:15:17.370Z,30.00
2022-08-03T08:17:48.046Z,28.60
2022-08-03T08:20:27.706Z,29.50
2022-08-03T08:22:56.276Z,28.50
2022-08-03T08:25:24.021Z,28.90
2022-08-03T08:28:22.276Z,28.10
2022-08-03T08:30:37.669Z,29.20
2022-08-03T08:33:04.530Z,29.30
2022-08-03T08:35:32.657Z,28.20
2022-08-03T08:38:01.319Z,28.40
2022-08-03T08:40:32.747Z,28.20
2022-08-03T08:42:59.472Z,28.70
2022-08-03T08:45:26.730Z,28.60
2022-08-03T08:48:01.659Z,27.90
2022-08-03T08:50:32.675Z,27.90
2022-08-03T08:53:02.454Z,27.70
2022-08-03T08:55:29.998Z,27.10
2022-08-03T08:58:20.978Z,27.20
2022-08-03T09:00:48.008Z,27.00
2022-08-03T09:03:25.277Z,27.10
2022-08-03T09:05:59.827Z,26.60
2022-08-03T09:08:26.727Z,28.10
2022-08-03T09:10:53.579Z,27.10
2022-08-03T09:13:20.817Z,28.10
2022-08-03T09:16:01.260Z,26.80
2022-08-03T09:18:32.227Z,27.00
2022-08-03T09:21:34.272Z,27.40
2022-08-03T09:24:05.327Z,26.90
2022-08-03T09:26:34.482Z,26.50
2022-08-03T09:29:07.146Z,26.60
2022-08-03T09:31:39.681Z,26.40
2022-08-03T09:34:11.618Z,27.20
2022-08-03T09:36:41.693Z,27.40
2022-08-03T09:39:10.481Z,27.20
2022-08-03T09:41:38.687Z,26.90
2022-08-03T09:44:05.814Z,26.50
2022-08-03T09:46:32.740Z,25.20
2022-08-03T09:49:20.553Z,25.60
2022-08-03T09:52:31.452Z,27.40
2022-08-03T09:54:35.795Z,28.60
2022-08-03T09:57:02.829Z,27.80
2022-08-03T09:59:31.644Z,26.80
2022-08-03T10:01:59.481Z,26.70
2022-08-03T10:04:27.049Z,27.30
2022-08-03T10:07:06.936Z,25.30
2022-08-03T10:09:33.771Z,26.60
2022-08-03T10:12:08.356Z,25.20
2022-08-03T10:14:37.667Z,26.30
2022-08-03T10:17:04.583Z,24.90
2022-08-03T10:19:31.372Z,25.60
2022-08-03T10:22:03.780Z,25.40
2022-08-03T10:24:35.118Z,25.00
2022-08-03T10:27:04.233Z,25.70
2022-08-03T10:29:36.905Z,26.20
2022-08-03T10:32:06.921Z,26.00
2022-08-03T10:34:40.346Z,25.50
2022-08-03T10:37:13.146Z,24.90
2022-08-03T10:39:44.682Z,24.00
2022-08-03T10:42:14.787Z,26.60
2022-08-03T10:44:42.619Z,26.60
2022-08-03T10:47:10.413Z,26.40
2022-08-03T10:49:38.228Z,27.10
2022-08-03T10:52:13.865Z,25.60
2022-08-03T10:54:53.801Z,26.70
2022-08-03T10:57:45.111Z,25.50
2022-08-03T11:00:14.661Z,26.90
2022-08-03T11:03:18.122Z,26.30
2022-08-03T11:05:46.553Z,27.40
2022-08-03T11:08:30.686Z,25.50
2022-08-03T11:11:22.897Z,25.20
2022-08-03T11:14:00.628Z,26.10
2022-08-03T11:16:31.622Z,26.70
2022-08-03T11:19:00.086Z,27.20
2022-08-03T11:22:06.040Z,27.70
2022-08-03T11:25:06.745Z,25.60
2022-08-03T11:27:33.880Z,25.80
2022-08-03T11:30:06.236Z,24.50
2022-08-03T11:32:58.278Z,24.40
2022-08-03T11:35:26.850Z,25.10
2022-08-03T11:38:12.447Z,24.50
2022-08-03T11:40:42.088Z,25.00
2022-08-03T11:43:10.215Z,23.90
2022-08-03T11:45:38.652Z,26.00
2022-08-03T11:48:16.179Z,26.90
2022-08-03T11:50:43.353Z,26.00
2022-08-03T11:53:14.695Z,25.80
2022-08-03T11:55:41.801Z,25.40
2022-08-03T11:59:14.985Z,25.70
2022-08-03T12:01:06.079Z,24.40
2022-08-03T12:03:34.392Z,25.40
2022-08-03T12:06:01.248Z,24.30
2022-08-03T12:08:33.468Z,26.10
2022-08-03T12:11:02.098Z,25.50
2022-08-03T12:14:45.214Z,26.60
2022-08-03T12:16:26.822Z,24.80
2022-08-03T12:18:58.757Z,23.70
2022-08-03T12:21:25.969Z,23.90
2022-08-03T12:23:57.165Z,25.60
2022-08-03T12:26:23.964Z,25.30
2022-08-03T12:28:50.855Z,25.50
2022-08-03T12:31:17.817Z,25.80
2022-08-03T12:34:03.414Z,26.50
2022-08-03T12:36:31.811Z,24.20
2022-08-03T12:38:59.704Z,24.60
2022-08-03T12:41:31.242Z,23.60
2022-08-03T12:43:58.052Z,22.80
2022-08-03T12:46:30.755Z,23.20
2022-08-03T12:49:04.514Z,23.30
2022-08-03T12:51:34.353Z,24.50
2022-08-03T12:54:02.474Z,23.80
2022-08-03T12:56:29.306Z,23.60
2022-08-03T12:58:56.205Z,24.00
2022-08-03T13:01:23.855Z,23.10
2022-08-03T13:03:53.135Z,24.30
2022-08-03T13:06:24.018Z,25.50
2022-08-03T13:09:02.460Z,24.90
2022-08-03T13:11:55.658Z,24.30
2022-08-03T13:14:20.122Z,24.50
2022-08-03T13:16:47.917Z,23.40
2022-08-03T13:19:15.507Z,24.80
2022-08-03T13:22:01.410Z,24.70
2022-08-03T13:24:31.803Z,24.70
2022-08-03T13:26:58.866Z,23.90
2022-08-03T13:29:25.651Z,25.10
2022-08-03T13:31:52.559Z,25.80
2022-08-03T13:34:22.976Z,24.60
2022-08-03T13:37:08.413Z,25.30
2022-08-03T13:39:48.185Z,24.40
2022-08-03T13:42:23.217Z,22.10
2022-08-03T13:44:50.387Z,21.30
2022-08-03T13:47:17.844Z,21.90
2022-08-03T13:50:00.515Z,22.50
2022-08-03T13:52:32.107Z,22.00
2022-08-03T13:54:59.520Z,22.00
2022-08-03T13:58:02.873Z,22.10
2022-08-03T14:00:16.318Z,21.80
2022-08-03T14:02:57.367Z,21.40
2022-08-03T14:05:30.382Z,21.20
2022-08-03T14:08:05.066Z,21.00
2022-08-03T14:10:36.086Z,21.80
2022-08-03T14:13:03.300Z,20.90
2022-08-03T14:15:38.268Z,21.30
2022-08-03T14:18:06.083Z,23.50
2022-08-03T14:20:38.443Z,23.50
2022-08-03T14:23:16.078Z,21.40
2022-08-03T14:25:50.258Z,21.90
2022-08-03T14:28:19.645Z,21.60
2022-08-03T14:30:46.619Z,20.90
2022-08-03T14:33:13.449Z,20.90
2022-08-03T14:35:40.389Z,21.50
2022-08-03T14:38:07.217Z,21.60
2022-08-03T14:40:35.536Z,23.50
2022-08-03T14:43:02.391Z,22.90
2022-08-03T14:45:29.374Z,22.10
2022-08-03T14:50:34.711Z,22.40
2022-08-03T14:50:48.354Z,23.30
2022-08-03T14:53:18.285Z,23.00
2022-08-03T14:55:50.434Z,24.50
2022-08-03T14:58:20.599Z,23.50
2022-08-03T15:00:48.578Z,22.00
2022-08-03T15:03:15.782Z,22.00
2022-08-03T15:05:44.155Z,24.40
2022-08-03T15:08:10.971Z,24.00
2022-08-03T15:10:44.050Z,24.20
2022-08-03T15:13:13.506Z,24.10
2022-08-03T15:15:40.821Z,23.50
2022-08-03T15:18:07.938Z,22.30
2022-08-03T15:20:50.162Z,22.00
2022-08-03T15:23:18.021Z,22.60
2022-08-03T15:26:32.397Z,23.00
2022-08-03T15:28:33.782Z,24.10
2022-08-03T15:31:00.906Z,23.80
2022-08-03T15:33:27.796Z,22.10
2022-08-03T15:35:54.585Z,23.50
2022-08-03T15:38:21.452Z,22.80
2022-08-03T15:40:48.350Z,21.40
2022-08-03T15:43:15.202Z,21.20
2022-08-03T15:45:43.420Z,21.70
2022-08-03T15:48:10.336Z,21.00
2022-08-03T15:50:37.173Z,20.50
2022-08-03T15:53:04.481Z,21.80
2022-08-03T15:55:31.638Z,21.10
2022-08-03T15:59:09.944Z,22.20
2022-08-03T16:00:46.998Z,21.30
2022-08-03T16:03:13.778Z,21.60
2022-08-03T16:05:40.605Z,21.40
2022-08-03T16:08:11.780Z,21.30
2022-08-03T16:10:41.100Z,22.70
2022-08-03T16:13:08.055Z,23.30
2022-08-03T16:15:38.584Z,21.30
2022-08-03T16:18:07.271Z,21.70
2022-08-03T16:20:35.273Z,22.30
2022-08-03T16:23:07.031Z,21.70
2022-08-03T16:25:38.525Z,24.30
2022-08-03T16:28:07.715Z,24.30
2022-08-03T16:30:40.395Z,23.90
2022-08-03T16:33:09.024Z,22.00
2022-08-03T16:35:35.852Z,22.40
2022-08-03T16:38:07.805Z,21.90
2022-08-03T16:40:36.238Z,23.60
2022-08-03T16:43:10.674Z,23.50
2022-08-03T16:45:46.659Z,23.10
2022-08-03T16:48:15.025Z,23.00
2022-08-03T16:50:41.827Z,23.70
2022-08-03T16:53:16.310Z,23.50
2022-08-03T16:55:52.380Z,22.00
2022-08-03T16:58:24.396Z,22.10
2022-08-03T17:01:20.999Z,22.00
2022-08-03T17:04:01.664Z,21.70
2022-08-03T17:06:35.513Z,22.20
2022-08-03T17:09:08.689Z,21.80
2022-08-03T17:11:37.318Z,22.10
2022-08-03T17:14:09.516Z,21.90
2022-08-03T17:16:37.081Z,21.40
2022-08-03T17:19:07.445Z,23.30
2022-08-03T17:21:36.430Z,22.30
2022-08-03T17:24:12.060Z,22.10
2022-08-03T17:26:43.446Z,22.70
2022-08-03T17:29:13.394Z,23.00
2022-08-03T17:31:49.915Z,22.10
2022-08-03T17:34:18.935Z,24.10
2022-08-03T17:37:04.160Z,23.50
2022-08-03T17:39:56.871Z,24.40
2022-08-03T17:42:29.309Z,23.50
2022-08-03T17:45:03.854Z,23.40
2022-08-03T17:47:41.799Z,22.40
2022-08-03T17:50:24.724Z,23.10
2022-08-03T17:53:01.029Z,24.10
2022-08-03T17:55:56.223Z,22.80
2022-08-03T17:58:24.289Z,23.20
2022-08-03T18:00:59.623Z,22.70
2022-08-03T18:03:58.149Z,23.60
2022-08-03T18:06:28.773Z,23.80
2022-08-03T18:08:58.098Z,24.10
2022-08-03T18:11:35.375Z,24.20
2022-08-03T18:14:16.023Z,24.90
2022-08-03T18:16:45.554Z,25.20
2022-08-03T18:19:13.773Z,25.70
2022-08-03T18:22:03.702Z,25.60
2022-08-03T18:24:30.216Z,25.60
2022-08-03T18:26:58.905Z,25.90
2022-08-03T18:29:27.276Z,26.20
2022-08-03T18:32:03.107Z,26.00
2022-08-03T18:34:34.070Z,26.00
2022-08-03T18:37:07.325Z,26.60
2022-08-03T18:39:49.480Z,26.70
2022-08-03T18:42:25.802Z,26.80
2022-08-03T18:48:02.279Z,27.10
2022-08-03T18:50:34.473Z,27.40
2022-08-03T18:53:16.195Z,27.30
2022-08-03T18:58:46.600Z,27.30
2022-08-03T19:01:58.960Z,27.50
2022-08-03T19:04:11.313Z,27.00
2022-08-03T19:06:43.666Z,27.00
2022-08-03T19:09:19.355Z,26.90
2022-08-03T19:12:12.395Z,26.80
2022-08-03T19:14:46.887Z,27.20
2022-08-03T19:17:13.781Z,27.90
2022-08-03T19:19:44.911Z,27.50
2022-08-03T19:22:19.648Z,27.20
2022-08-03T19:24:48.415Z,27.60
2022-08-03T19:27:15.862Z,27.10
2022-08-03T19:29:58.526Z,27.80
2022-08-03T19:32:29.414Z,28.20
2022-08-03T19:34:57.260Z,28.50
2022-08-03T19:37:26.829Z,28.30
2022-08-03T19:40:10.986Z,28.60
2022-08-03T19:43:00.279Z,28.10
2022-08-03T19:45:52.589Z,28.10
2022-08-03T19:48:20.690Z,28.60
2022-08-03T19:50:52.724Z,29.00
2022-08-03T19:53:22.413Z,29.50
2022-08-03T19:55:53.948Z,29.40
2022-08-03T19:58:28.600Z,29.20
2022-08-03T20:00:55.806Z,28.90
2022-08-03T20:03:23.400Z,29.50
2022-08-03T20:05:54.223Z,29.50
2022-08-03T20:08:22.538Z,29.40
2022-08-03T20:10:51.303Z,29.80
2022-08-03T20:13:19.666Z,30.60
2022-08-03T20:15:46.593Z,29.90
2022-08-03T20:18:16.638Z,30.10
2022-08-03T20:20:48.008Z,30.30
2022-08-03T20:23:18.210Z,30.20
2022-08-03T20:25:48.945Z,30.50
2022-08-03T20:28:32.116Z,30.60
2022-08-03T20:30:59.753Z,30.80
2022-08-03T20:33:27.851Z,30.80
2022-08-03T20:36:13.359Z,31.20
2022-08-03T20:38:43.861Z,31.10
2022-08-03T20:41:14.571Z,31.40
2022-08-03T20:43:43.423Z,31.50
2022-08-03T20:46:35.286Z,31.60
2022-08-03T20:48:58.906Z,31.60
2022-08-03T20:51:50.225Z,31.70
2022-08-03T20:54:23.009Z,32.20
2022-08-03T20:56:57.675Z,32.20
2022-08-03T20:59:26.992Z,32.30
2022-08-03T21:01:53.879Z,32.30
2022-08-03T21:04:21.848Z,32.20
2022-08-03T21:06:53.642Z,32.20
2022-08-03T21:09:33.354Z,32.60
2022-08-03T21:12:12.084Z,33.10
2022-08-03T21:13:00.962Z,27.00
2022-08-03T21:13:05.926Z,26.60
2022-08-03T21:14:50.348Z,32.80
2022-08-03T21:17:38.403Z,32.90
2022-08-03T21:20:08.259Z,33.10
2022-08-03T21:22:38.054Z,33.10
2022-08-03T21:25:07.531Z,33.40
2022-08-03T21:27:35.398Z,33.60
2022-08-03T21:30:07.842Z,33.40
2022-08-03T21:32:35.214Z,33.70
2022-08-03T21:35:02.423Z,33.40
2022-08-03T21:37:29.330Z,33.90
2022-08-03T21:39:56.673Z,33.70
2022-08-03T21:42:24.027Z,34.00
2022-08-03T21:44:51.310Z,34.20
2022-08-03T21:47:22.201Z,34.10
2022-08-03T21:50:08.204Z,34.40
2022-08-03T21:52:42.633Z,34.60
2022-08-03T21:55:18.619Z,34.60
2022-08-03T21:57:52.001Z,34.80
2022-08-03T22:00:20.671Z,34.40
2022-08-03T22:02:54.735Z,35.20
2022-08-03T22:05:43.878Z,34.80
2022-08-03T22:08:12.474Z,34.70
2022-08-03T22:10:39.598Z,34.80
2022-08-03T22:13:06.523Z,35.10
2022-08-03T22:15:33.454Z,34.90
2022-08-03T22:18:01.707Z,34.70
2022-08-03T22:20:28.516Z,35.30
2022-08-03T22:22:58.672Z,35.70
2022-08-03T22:25:29.296Z,35.00
2022-08-03T22:27:58.372Z,35.40
2022-08-03T22:30:25.286Z,35.30
2022-08-03T22:32:54.776Z,35.30
2022-08-03T22:35:25.549Z,35.40
2022-08-03T22:37:54.386Z,36.00
2022-08-03T22:40:21.777Z,35.80
2022-08-03T22:42:49.374Z,36.00
2022-08-03T22:45:45.782Z,35.50
2022-08-03T22:48:07.715Z,35.80
2022-08-03T22:50:36.849Z,35.50
2022-08-03T22:53:03.862Z,35.80
2022-08-03T22:55:31.426Z,36.20
2022-08-03T22:57:58.337Z,36.70
2022-08-03T23:00:25.352Z,37.30
2022-08-03T23:02:54.484Z,36.40
2022-08-03T23:06:01.979Z,36.20
2022-08-03T23:08:14.462Z,36.90
2022-08-03T23:10:46.804Z,37.30
2022-08-03T23:13:16.424Z,36.80
2022-08-03T23:15:50.792Z,37.00
2022-08-03T23:18:19.160Z,37.20
2022-08-03T23:20:48.988Z,37.00
2022-08-03T23:23:19.872Z,37.90
2022-08-03T23:25:49.279Z,37.60
2022-08-03T23:28:16.548Z,38.10
2022-08-03T23:30:43.565Z,37.90
2022-08-03T23:33:12.512Z,37.90
2022-08-03T23:36:28.779Z,38.30
2022-08-03T23:38:30.199Z,38.00
2022-08-03T23:40:58.476Z,38.40
2022-08-03T23:43:51.236Z,38.00
2022-08-03T23:46:18.222Z,38.50
2022-08-03T23:48:45.169Z,37.90
2022-08-03T23:51:22.196Z,37.90
2022-08-03T23:54:01.779Z,38.20
2022-08-03T23:56:36.777Z,39.00
2022-08-03T23:59:13.502Z,39.00
